createdAt,value
2022-09-14T00:01:24.645Z,99456.00
2022-09-14T00:04:27.147Z,99470.03
2022-09-14T00:07:30.138Z,99491.47
2022-09-14T00:10:31.918Z,99489.69
2022-09-14T00:13:34.090Z,99487.16
2022-09-14T00:16:37.886Z,99474.00
2022-09-14T00:19:39.538Z,99496.41
2022-09-14T00:22:42.588Z,99527.63
2022-09-14T00:25:44.245Z,99519.81
2022-09-14T00:28:48.502Z,99503.31
2022-09-14T00:31:50.513Z,99505.25
2022-09-14T00:34:52.152Z,99499.44
2022-09-14T00:37:55.090Z,99493.84
2022-09-14T00:40:58.018Z,99477.06
2022-09-14T00:44:01.693Z,99453.50
2022-09-14T00:47:03.743Z,99449.28
2022-09-14T00:50:06.876Z,99442.66
2022-09-14T00:53:09.952Z,99421.56
2022-09-14T00:56:11.915Z,99415.41
2022-09-14T00:59:20.266Z,99401.13
2022-09-14T01:02:23.635Z,99404.94
2022-09-14T01:05:36.438Z,99409.25
2022-09-14T01:09:07.694Z,99408.66
2022-09-14T01:12:19.879Z,99413.56
2022-09-14T01:15:26.041Z,99415.53
2022-09-14T01:18:29.345Z,99413.09
2022-09-14T01:21:33.398Z,99413.56
2022-09-14T01:24:43.112Z,99406.97
2022-09-14T01:27:46.939Z,99403.34
2022-09-14T01:30:51.759Z,99411.41
2022-09-14T01:33:59.922Z,99414.38
2022-09-14T01:37:12.793Z,99423.19
2022-09-14T01:40:22.082Z,99435.97
2022-09-14T01:43:35.070Z,99429.72
2022-09-14T01:46:41.713Z,99438.28
2022-09-14T01:49:49.135Z,99441.97
2022-09-14T01:52:55.826Z,99432.09
2022-09-14T01:56:01.808Z,99428.84
2022-09-14T01:59:09.728Z,99423.44
2022-09-14T02:02:16.011Z,99413.50
2022-09-14T02:05:26.390Z,99399.75
2022-09-14T02:08:30.794Z,99401.53
2022-09-14T02:11:32.428Z,99395.19
2022-09-14T02:14:35.777Z,99391.72
2022-09-14T02:17:37.541Z,99386.56
2022-09-14T02:20:44.644Z,99389.38
2022-09-14T02:23:47.978Z,99392.22
2022-09-14T02:26:52.613Z,99391.41
2022-09-14T02:29:55.724Z,99392.78
2022-09-14T02:33:08.374Z,99393.47
2022-09-14T02:36:17.074Z,99398.78
2022-09-14T02:39:27.200Z,99396.72
2022-09-14T02:42:37.068Z,99395.38
2022-09-14T02:45:48.415Z,99385.25
2022-09-14T02:49:04.306Z,99374.81
2022-09-14T02:52:15.167Z,99372.44
2022-09-14T02:55:19.586Z,99368.56
2022-09-14T02:58:21.714Z,99364.19
2022-09-14T03:01:24.966Z,99354.94
2022-09-14T03:04:27.054Z,99347.81
2022-09-14T03:07:28.705Z,99346.03
2022-09-14T03:10:31.660Z,99341.81
2022-09-14T03:13:34.613Z,99342.25
2022-09-14T03:16:38.447Z,99327.06
2022-09-14T03:19:41.089Z,99327.06
2022-09-14T03:22:42.872Z,99330.28
2022-09-14T03:25:44.720Z,99329.47
2022-09-14T03:28:50.188Z,99330.34
2022-09-14T03:31:53.232Z,99305.94
2022-09-14T03:34:54.945Z,99291.31
2022-09-14T03:37:57.037Z,99299.47
2022-09-14T03:40:59.474Z,99294.72
2022-09-14T03:44:01.506Z,99288.78
2022-09-14T03:47:04.667Z,99313.00
2022-09-14T03:50:07.995Z,99315.00
2022-09-14T03:53:09.673Z,99316.72
2022-09-14T03:56:13.662Z,99297.53
2022-09-14T03:59:15.308Z,99281.97
2022-09-14T04:02:18.376Z,99281.13
2022-09-14T04:05:21.971Z,99281.03
2022-09-14T04:08:24.246Z,99282.03
2022-09-14T04:11:26.191Z,99284.94
2022-09-14T04:14:27.922Z,99292.66
2022-09-14T04:17:30.938Z,99308.66
2022-09-14T04:20:32.650Z,99309.56
2022-09-14T04:23:36.603Z,99316.56
2022-09-14T04:26:48.121Z,99319.16
2022-09-14T04:29:50.402Z,99321.56
2022-09-14T04:32:55.170Z,99322.44
2022-09-14T04:35:58.721Z,99310.44
2022-09-14T04:39:02.140Z,99309.28
2022-09-14T04:42:04.420Z,99304.25
2022-09-14T04:45:07.054Z,99312.00
2022-09-14T04:48:09.972Z,99302.16
2022-09-14T04:51:18.298Z,99309.78
2022-09-14T04:54:20.057Z,99301.53
2022-09-14T04:57:21.796Z,99303.09
2022-09-14T05:00:23.493Z,99301.59
2022-09-14T05:03:26.472Z,99301.81
2022-09-14T05:06:30.244Z,99306.19
2022-09-14T05:09:31.979Z,99305.19
2022-09-14T05:12:34.096Z,99301.88
2022-09-14T05:15:36.755Z,99310.22
2022-09-14T05:18:39.875Z,99300.78
2022-09-14T05:21:41.780Z,99311.00
2022-09-14T05:24:43.496Z,99319.53
2022-09-14T05:27:45.177Z,99308.09
2022-09-14T05:30:46.863Z,99316.44
2022-09-14T05:33:50.043Z,99322.81
2022-09-14T05:36:51.798Z,99325.56
2022-09-14T05:39:53.795Z,99313.47
2022-09-14T05:42:55.417Z,99316.06
2022-09-14T05:46:01.667Z,99304.69
2022-09-14T05:49:04.877Z,99307.56
2022-09-14T05:52:06.488Z,99304.06
2022-09-14T05:55:08.839Z,99310.38
2022-09-14T05:58:11.050Z,99311.00
2022-09-14T06:01:14.616Z,99300.03
2022-09-14T06:04:17.567Z,99300.88
2022-09-14T06:07:19.302Z,99291.63
2022-09-14T06:10:21.836Z,99284.69
2022-09-14T06:13:24.163Z,99271.72
2022-09-14T06:16:27.991Z,99262.66
2022-09-14T06:19:31.238Z,99279.69
2022-09-14T06:22:33.338Z,99264.00
2022-09-14T06:25:35.053Z,99270.25
2022-09-14T06:28:36.770Z,99277.22
2022-09-14T06:31:38.509Z,99291.84
2022-09-14T06:34:41.568Z,99290.88
2022-09-14T06:37:43.354Z,99301.28
2022-09-14T06:40:52.041Z,99310.72
2022-09-14T06:43:56.689Z,99321.44
2022-09-14T06:46:58.325Z,99317.03
2022-09-14T06:50:01.426Z,99320.38
2022-09-14T06:53:03.073Z,99323.66
2022-09-14T06:56:05.136Z,99312.41
2022-09-14T06:59:08.770Z,99316.41
2022-09-14T07:02:13.321Z,99319.47
2022-09-14T07:05:19.148Z,99319.56
2022-09-14T07:08:20.754Z,99326.22
2022-09-14T07:11:25.823Z,99302.16
2022-09-14T07:14:32.031Z,99302.97
2022-09-14T07:17:36.336Z,99305.78
2022-09-14T07:20:39.522Z,99309.63
2022-09-14T07:23:43.636Z,99275.97
2022-09-14T07:26:45.347Z,99266.28
2022-09-14T07:29:47.389Z,99278.63
2022-09-14T07:32:49.338Z,99299.84
2022-09-14T07:35:52.885Z,99297.25
2022-09-14T07:38:54.922Z,99305.25
2022-09-14T07:41:56.494Z,99297.69
2022-09-14T07:44:58.128Z,99290.25
2022-09-14T07:48:00.693Z,99287.00
2022-09-14T07:51:05.687Z,99281.19
2022-09-14T07:54:11.215Z,99290.41
2022-09-14T07:57:12.934Z,99298.75
2022-09-14T08:00:16.239Z,99313.66
2022-09-14T08:03:17.871Z,99314.44
2022-09-14T08:06:22.840Z,99318.22
2022-09-14T08:09:25.154Z,99320.59
2022-09-14T08:12:26.937Z,99323.47
2022-09-14T08:15:28.832Z,99325.56
2022-09-14T08:18:32.692Z,99332.09
2022-09-14T08:21:35.749Z,99324.63
2022-09-14T08:24:37.404Z,99330.88
2022-09-14T08:27:39.298Z,99337.91
2022-09-14T08:30:41.505Z,99327.03
2022-09-14T08:33:44.925Z,99347.69
2022-09-14T08:36:48.844Z,99358.97
2022-09-14T08:39:51.839Z,99367.38
2022-09-14T08:42:58.632Z,99370.94
2022-09-14T08:46:04.472Z,99375.63
2022-09-14T08:49:16.831Z,99390.63
2022-09-14T08:52:25.476Z,99401.59
2022-09-14T08:55:34.441Z,99401.25
2022-09-14T08:58:48.682Z,99385.78
2022-09-14T09:01:59.743Z,99387.41
2022-09-14T09:05:16.210Z,99374.91
2022-09-14T09:08:29.863Z,99367.19
2022-09-14T09:11:37.362Z,99369.72
2022-09-14T09:14:41.974Z,99375.31
2022-09-14T09:17:46.822Z,99377.84
2022-09-14T09:20:51.569Z,99366.22
2022-09-14T09:24:04.582Z,99371.03
2022-09-14T09:27:10.860Z,99382.47
2022-09-14T09:30:14.178Z,99374.81
2022-09-14T09:33:18.774Z,99361.41
2022-09-14T09:36:43.665Z,99352.47
2022-09-14T09:39:47.038Z,99360.94
2022-09-14T09:43:09.919Z,99369.56
2022-09-14T09:46:12.371Z,99359.75
2022-09-14T09:49:20.606Z,99345.97
2022-09-14T09:52:22.379Z,99331.06
2022-09-14T09:55:31.303Z,99321.47
2022-09-14T09:58:37.609Z,99316.31
2022-09-14T10:01:39.401Z,99296.41
2022-09-14T10:04:56.623Z,99295.88
2022-09-14T10:07:59.876Z,99285.09
2022-09-14T10:11:03.765Z,99282.94
2022-09-14T10:14:18.763Z,99287.38
2022-09-14T10:17:21.978Z,99276.56
2022-09-14T10:20:25.379Z,99283.66
2022-09-14T10:23:29.268Z,99268.69
2022-09-14T10:26:36.241Z,99264.47
2022-09-14T10:29:41.402Z,99260.00
2022-09-14T10:32:48.663Z,99248.81
2022-09-14T10:35:57.496Z,99238.63
2022-09-14T10:39:08.330Z,99232.22
2022-09-14T10:42:21.628Z,99220.38
2022-09-14T10:45:29.648Z,99233.38
2022-09-14T10:48:46.801Z,99221.03
2022-09-14T10:52:00.070Z,99218.44
2022-09-14T10:55:18.788Z,99203.94
2022-09-14T10:58:36.462Z,99200.22
2022-09-14T11:01:52.899Z,99195.59
2022-09-14T11:05:01.407Z,99183.63
2022-09-14T11:08:19.402Z,99193.59
2022-09-14T11:11:36.611Z,99186.38
2022-09-14T11:15:01.913Z,99174.44
2022-09-14T11:18:15.021Z,99166.19
2022-09-14T11:21:25.570Z,99170.94
2022-09-14T11:24:37.469Z,99158.16
2022-09-14T11:27:42.644Z,99160.88
2022-09-14T11:30:50.254Z,99163.41
2022-09-14T11:33:55.778Z,99164.22
2022-09-14T11:37:03.390Z,99165.34
2022-09-14T11:40:16.670Z,99160.34
2022-09-14T11:43:22.936Z,99159.22
2022-09-14T11:46:32.422Z,99154.38
2022-09-14T11:49:44.860Z,99160.09
2022-09-14T11:52:48.797Z,99164.81
2022-09-14T11:55:51.037Z,99163.63
2022-09-14T11:58:57.902Z,99170.56
2022-09-14T12:02:49.720Z,99180.06
2022-09-14T12:05:52.771Z,99171.81
2022-09-14T12:13:20.719Z,99146.84
2022-09-14T12:16:22.552Z,99150.41
2022-09-14T12:19:26.919Z,99144.94
2022-09-14T12:22:31.973Z,99154.00
2022-09-14T12:25:34.809Z,99154.75
2022-09-14T12:28:48.417Z,99157.31
2022-09-14T12:32:06.997Z,99179.34
2022-09-14T12:35:45.140Z,99182.44
2022-09-14T12:39:18.963Z,99175.34
2022-09-14T12:42:27.593Z,99190.16
2022-09-14T12:45:51.100Z,99190.06
2022-09-14T12:48:58.769Z,99182.97
2022-09-14T12:52:17.690Z,99191.13
2022-09-14T12:55:35.084Z,99183.69
2022-09-14T12:58:50.952Z,99174.63
2022-09-14T13:01:58.938Z,99179.81
2022-09-14T13:05:01.236Z,99161.97
2022-09-14T13:08:10.010Z,99159.19
2022-09-14T13:11:21.272Z,99149.34
2022-09-14T13:14:24.970Z,99137.97
2022-09-14T13:17:27.021Z,99129.03
2022-09-14T13:20:29.920Z,99123.78
2022-09-14T13:23:37.326Z,99121.38
2022-09-14T13:26:40.423Z,99117.81
2022-09-14T13:29:42.219Z,99113.88
2022-09-14T13:32:46.632Z,99122.31
2022-09-14T13:35:50.667Z,99127.75
2022-09-14T13:38:53.012Z,99121.50
2022-09-14T13:41:58.244Z,99118.53
2022-09-14T13:45:00.461Z,99118.56
2022-09-14T13:48:04.081Z,99117.81
2022-09-14T13:51:06.764Z,99117.19
2022-09-14T13:54:26.692Z,99114.47
2022-09-14T13:57:29.643Z,99115.16
2022-09-14T14:00:31.961Z,99117.06
2022-09-14T14:03:36.508Z,99115.53
2022-09-14T14:06:39.376Z,99101.50
2022-09-14T14:09:43.553Z,99103.25
2022-09-14T14:12:50.581Z,99100.56
2022-09-14T14:15:54.220Z,99101.53
2022-09-14T14:18:56.960Z,99097.22
2022-09-14T14:22:19.392Z,99084.69
2022-09-14T14:25:29.082Z,99092.78
2022-09-14T14:28:32.530Z,99098.97
2022-09-14T14:31:34.204Z,99111.13
2022-09-14T14:34:35.910Z,99107.47
2022-09-14T14:37:37.612Z,99120.47
2022-09-14T14:40:40.913Z,99109.25
2022-09-14T14:43:46.779Z,99109.03
2022-09-14T14:46:48.666Z,99114.81
2022-09-14T14:49:51.400Z,99103.16
2022-09-14T14:52:53.441Z,99105.44
2022-09-14T14:55:55.173Z,99094.69
2022-09-14T14:59:02.078Z,99081.19
2022-09-14T15:02:05.458Z,99069.56
2022-09-14T15:05:08.079Z,99058.00
2022-09-14T15:08:10.826Z,99063.13
2022-09-14T15:11:16.624Z,99073.66
2022-09-14T15:14:26.057Z,99071.88
2022-09-14T15:17:28.527Z,99079.00
2022-09-14T15:20:30.257Z,99075.44
2022-09-14T15:23:32.560Z,99083.50
2022-09-14T15:26:34.531Z,99076.34
2022-09-14T15:29:37.606Z,99065.78
2022-09-14T15:32:39.814Z,99064.94
2022-09-14T15:35:41.443Z,99062.28
2022-09-14T15:38:43.121Z,99069.47
2022-09-14T15:41:54.942Z,99049.72
2022-09-14T15:49:44.968Z,99065.31
2022-09-14T15:52:46.718Z,99065.19
2022-09-14T15:55:48.463Z,99057.84
2022-09-14T15:58:53.796Z,99053.38
2022-09-14T16:01:57.845Z,99050.84
2022-09-14T16:05:02.104Z,99054.41
2022-09-14T16:08:03.924Z,99060.06
2022-09-14T16:11:08.974Z,99075.06
2022-09-14T16:14:11.713Z,99072.34
2022-09-14T16:17:13.399Z,99087.50
2022-09-14T16:20:16.541Z,99096.59
2022-09-14T16:23:18.271Z,99097.38
2022-09-14T16:47:44.983Z,99121.06
2022-09-14T16:50:52.561Z,99120.97
2022-09-14T16:53:54.920Z,99115.56
2022-09-14T16:56:58.033Z,99109.22
2022-09-14T16:59:59.838Z,99105.47
2022-09-14T17:03:02.937Z,99109.72
2022-09-14T17:06:06.951Z,99108.13
2022-09-14T17:09:11.421Z,99112.63
2022-09-14T17:12:13.137Z,99109.03
2022-09-14T17:15:15.171Z,99113.53
2022-09-14T17:18:20.672Z,99115.19
2022-09-14T17:21:23.990Z,99119.59
2022-09-14T17:24:26.011Z,99117.97
2022-09-14T17:27:27.703Z,99114.97
2022-09-14T17:30:29.508Z,99109.78
2022-09-14T17:33:35.317Z,99100.53
2022-09-14T17:36:38.160Z,99102.31
2022-09-14T17:39:39.837Z,99109.41
2022-09-14T17:42:42.435Z,99103.22
2022-09-14T17:45:52.725Z,99107.75
2022-09-14T17:48:57.032Z,99114.72
2022-09-14T17:51:58.578Z,99120.81
2022-09-14T17:55:00.359Z,99119.91
2022-09-14T17:58:02.400Z,99136.06
2022-09-14T18:01:06.764Z,99132.34
2022-09-14T18:04:12.187Z,99151.06
2022-09-14T18:07:16.928Z,99163.91
2022-09-14T18:10:19.078Z,99173.34
2022-09-14T18:13:20.845Z,99175.31
2022-09-14T18:16:24.560Z,99160.09
2022-09-14T18:19:27.691Z,99162.44
2022-09-14T18:22:29.384Z,99171.16
2022-09-14T18:25:31.159Z,99180.13
2022-09-14T18:28:35.908Z,99167.94
2022-09-14T18:31:38.347Z,99177.47
2022-09-14T18:34:41.479Z,99181.44
2022-09-14T18:37:43.162Z,99191.41
2022-09-14T18:40:45.082Z,99178.97
2022-09-14T18:43:49.684Z,99191.50
2022-09-14T18:46:51.819Z,99191.13
2022-09-14T18:49:55.055Z,99198.22
2022-09-14T18:52:56.897Z,99200.69
2022-09-14T18:56:01.542Z,99220.53
2022-09-14T18:59:05.381Z,99229.53
2022-09-14T19:02:07.255Z,99220.22
2022-09-14T19:05:10.712Z,99221.59
2022-09-14T19:08:13.572Z,99228.88
2022-09-14T19:11:17.926Z,99227.75
2022-09-14T19:14:20.613Z,99236.63
2022-09-14T19:17:22.335Z,99244.16
2022-09-14T19:20:28.882Z,99243.13
2022-09-14T19:23:40.712Z,99238.47
2022-09-14T19:26:45.534Z,99217.53
2022-09-14T19:29:47.348Z,99207.03
2022-09-14T19:32:49.644Z,99197.88
2022-09-14T19:35:52.589Z,99186.53
2022-09-14T19:38:57.254Z,99198.88
2022-09-14T19:41:59.087Z,99212.88
2022-09-14T19:45:01.009Z,99216.38
2022-09-14T19:48:03.442Z,99217.06
2022-09-14T19:51:13.008Z,99215.81
2022-09-14T19:54:15.062Z,99217.22
2022-09-14T19:57:16.783Z,99223.38
2022-09-14T20:00:18.732Z,99226.16
2022-09-14T20:03:20.605Z,99220.34
2022-09-14T20:06:28.237Z,99226.47
2022-09-14T20:09:30.034Z,99222.16
2022-09-14T20:12:31.728Z,99215.41
2022-09-14T20:15:33.451Z,99213.00
2022-09-14T20:18:37.442Z,99213.00
2022-09-14T20:21:41.418Z,99208.75
2022-09-14T20:24:43.125Z,99213.56
2022-09-14T20:27:49.435Z,99214.69
2022-09-14T20:30:57.268Z,99222.59
2022-09-14T20:33:59.650Z,99236.66
2022-09-14T20:37:02.640Z,99239.75
2022-09-14T20:40:05.593Z,99246.16
2022-09-14T20:43:07.793Z,99254.69
2022-09-14T20:46:11.955Z,99267.28
2022-09-14T20:49:16.962Z,99263.44
2022-09-14T20:52:20.540Z,99255.69
2022-09-14T20:55:22.145Z,99263.09
2022-09-14T20:58:23.753Z,99253.25
2022-09-14T21:01:27.299Z,99248.81
2022-09-14T21:04:29.110Z,99255.75
2022-09-14T21:07:33.282Z,99261.22
2022-09-14T21:10:38.057Z,99261.50
2022-09-14T21:13:39.891Z,99260.44
2022-09-14T21:16:43.600Z,99257.78
2022-09-14T21:19:45.235Z,99246.47
2022-09-14T21:22:48.425Z,99238.56
2022-09-14T21:25:54.975Z,99229.75
2022-09-14T21:28:58.255Z,99227.34
2022-09-14T21:31:59.934Z,99225.38
2022-09-14T21:35:01.856Z,99208.53
2022-09-14T21:38:04.843Z,99210.06
2022-09-14T21:41:08.202Z,99218.75
2022-09-14T21:44:09.836Z,99239.75
2022-09-14T21:47:11.475Z,99239.94
2022-09-14T21:50:15.695Z,99232.53
2022-09-14T21:53:18.652Z,99221.97
2022-09-14T21:56:21.932Z,99224.56
2022-09-14T21:59:24.035Z,99231.91
2022-09-14T22:02:25.759Z,99216.78
2022-09-14T22:05:27.449Z,99221.97
2022-09-14T22:08:31.497Z,99214.47
2022-09-14T22:11:35.147Z,99218.13
2022-09-14T22:14:36.980Z,99226.09
2022-09-14T22:17:38.629Z,99220.06
2022-09-14T22:20:40.462Z,99221.47
2022-09-14T22:23:50.039Z,99217.34
2022-09-14T22:26:51.876Z,99214.19
2022-09-14T22:29:53.477Z,99217.06
2022-09-14T22:32:55.216Z,99214.84
2022-09-14T22:35:58.960Z,99219.44
2022-09-14T22:39:05.493Z,99224.53
2022-09-14T22:42:07.310Z,99213.38
2022-09-14T22:45:09.863Z,99226.78
2022-09-14T22:48:11.511Z,99221.41
2022-09-14T22:51:16.279Z,99232.03
2022-09-14T22:54:19.275Z,99231.53
2022-09-14T22:57:24.524Z,99241.81
2022-09-14T23:00:28.601Z,99246.16
2022-09-14T23:03:30.232Z,99252.59
2022-09-14T23:06:35.022Z,99261.41
2022-09-14T23:09:39.219Z,99265.50
2022-09-14T23:12:43.099Z,99256.78
2022-09-14T23:15:45.066Z,99254.31
2022-09-14T23:18:50.865Z,99255.69
2022-09-14T23:21:52.649Z,99249.69
2022-09-14T23:24:55.565Z,99250.91
2022-09-14T23:27:57.234Z,99248.72
2022-09-14T23:30:59.772Z,99243.06
2022-09-14T23:34:03.256Z,99232.31
2022-09-14T23:37:04.978Z,99232.44
2022-09-14T23:40:09.053Z,99244.00
2022-09-14T23:43:11.169Z,99246.84
2022-09-14T23:46:13.244Z,99246.91
2022-09-14T23:49:14.922Z,99254.63
2022-09-14T23:52:16.536Z,99248.66
2022-09-14T23:55:19.469Z,99245.38
2022-09-14T23:58:21.190Z,99238.03
